sensor_id;sensor_type;location;lat;lon;timestamp;P1;durP1;ratioP1;P2;durP2;ratioP2
75698;SDS011;64313;51.018;13.742;2023-06-26T00:02:19;5.93;;;3.45;;
75698;SDS011;64313;51.018;13.742;2023-06-26T00:04:44;8.23;;;3.67;;
75698;SDS011;64313;51.018;13.742;2023-06-26T00:07:10;6.93;;;3.92;;
75698;SDS011;64313;51.018;13.742;2023-06-26T00:09:36;5.95;;;3.63;;
75698;SDS011;64313;51.018;13.742;2023-06-26T00:12:01;5.78;;;3.40;;
75698;SDS011;64313;51.018;13.742;2023-06-26T00:14:27;6.75;;;3.97;;
75698;SDS011;64313;51.018;13.742;2023-06-26T00:16:52;6.00;;;3.50;;
75698;SDS011;64313;51.018;13.742;2023-06-26T00:19:18;6.32;;;3.53;;
75698;SDS011;64313;51.018;13.742;2023-06-26T00:21:43;6.38;;;3.45;;
75698;SDS011;64313;51.018;13.742;2023-06-26T00:24:12;7.90;;;3.70;;
75698;SDS011;64313;51.018;13.742;2023-06-26T00:26:38;6.88;;;3.53;;
75698;SDS011;64313;51.018;13.742;2023-06-26T00:29:03;6.10;;;3.20;;
75698;SDS011;64313;51.018;13.742;2023-06-26T00:31:29;7.25;;;3.33;;
75698;SDS011;64313;51.018;13.742;2023-06-26T00:33:55;7.57;;;3.58;;
75698;SDS011;64313;51.018;13.742;2023-06-26T00:36:22;5.82;;;3.03;;
75698;SDS011;64313;51.018;13.742;2023-06-26T00:38:49;6.43;;;3.85;;
75698;SDS011;64313;51.018;13.742;2023-06-26T00:41:15;5.88;;;3.60;;
75698;SDS011;64313;51.018;13.742;2023-06-26T00:43:41;5.55;;;3.25;;
75698;SDS011;64313;51.018;13.742;2023-06-26T00:46:09;8.00;;;3.72;;
75698;SDS011;64313;51.018;13.742;2023-06-26T00:48:37;6.13;;;3.42;;
75698;SDS011;64313;51.018;13.742;2023-06-26T00:51:05;6.13;;;3.58;;
75698;SDS011;64313;51.018;13.742;2023-06-26T00:53:31;5.85;;;3.28;;
75698;SDS011;64313;51.018;13.742;2023-06-26T00:55:57;6.30;;;3.50;;
75698;SDS011;64313;51.018;13.742;2023-06-26T00:58:24;8.57;;;3.40;;
75698;SDS011;64313;51.018;13.742;2023-06-26T01:00:53;6.15;;;3.63;;
75698;SDS011;64313;51.018;13.742;2023-06-26T01:03:20;5.75;;;3.10;;
75698;SDS011;64313;51.018;13.742;2023-06-26T01:05:48;6.93;;;3.03;;
75698;SDS011;64313;51.018;13.742;2023-06-26T01:08:16;8.98;;;3.28;;
75698;SDS011;64313;51.018;13.742;2023-06-26T01:10:43;5.13;;;2.72;;
75698;SDS011;64313;51.018;13.742;2023-06-26T01:13:11;7.20;;;3.85;;
75698;SDS011;64313;51.018;13.742;2023-06-26T01:15:39;6.32;;;3.15;;
75698;SDS011;64313;51.018;13.742;2023-06-26T01:18:05;5.30;;;3.15;;
75698;SDS011;64313;51.018;13.742;2023-06-26T01:20:34;5.97;;;3.53;;
75698;SDS011;64313;51.018;13.742;2023-06-26T01:25:56;7.18;;;3.47;;
75698;SDS011;64313;51.018;13.742;2023-06-26T01:28:41;6.35;;;3.50;;
75698;SDS011;64313;51.018;13.742;2023-06-26T01:31:07;6.88;;;3.20;;
75698;SDS011;64313;51.018;13.742;2023-06-26T01:33:35;5.88;;;3.40;;
75698;SDS011;64313;51.018;13.742;2023-06-26T01:36:01;7.78;;;3.50;;
75698;SDS011;64313;51.018;13.742;2023-06-26T01:38:27;6.00;;;3.33;;
75698;SDS011;64313;51.018;13.742;2023-06-26T01:40:56;6.88;;;3.30;;
75698;SDS011;64313;51.018;13.742;2023-06-26T01:43:27;5.78;;;3.42;;
75698;SDS011;64313;51.018;13.742;2023-06-26T01:46:08;9.57;;;3.42;;
75698;SDS011;64313;51.018;13.742;2023-06-26T01:48:40;6.07;;;3.65;;
75698;SDS011;64313;51.018;13.742;2023-06-26T01:51:12;6.60;;;3.45;;
75698;SDS011;64313;51.018;13.742;2023-06-26T01:53:41;6.57;;;3.20;;
75698;SDS011;64313;51.018;13.742;2023-06-26T01:56:13;6.55;;;3.60;;
75698;SDS011;64313;51.018;13.742;2023-06-26T01:58:45;5.80;;;3.30;;
75698;SDS011;64313;51.018;13.742;2023-06-26T02:01:12;6.00;;;3.47;;
75698;SDS011;64313;51.018;13.742;2023-06-26T02:03:37;6.15;;;3.70;;
75698;SDS011;64313;51.018;13.742;2023-06-26T02:06:03;6.65;;;3.45;;
75698;SDS011;64313;51.018;13.742;2023-06-26T02:08:28;7.18;;;3.30;;
75698;SDS011;64313;51.018;13.742;2023-06-26T02:10:55;6.72;;;3.60;;
75698;SDS011;64313;51.018;13.742;2023-06-26T02:13:21;6.10;;;3.60;;
75698;SDS011;64313;51.018;13.742;2023-06-26T02:15:46;5.57;;;3.38;;
75698;SDS011;64313;51.018;13.742;2023-06-26T02:18:12;6.72;;;3.42;;
75698;SDS011;64313;51.018;13.742;2023-06-26T02:20:38;7.22;;;3.35;;
75698;SDS011;64313;51.018;13.742;2023-06-26T02:23:04;6.93;;;3.35;;
75698;SDS011;64313;51.018;13.742;2023-06-26T02:25:29;6.15;;;3.70;;
75698;SDS011;64313;51.018;13.742;2023-06-26T02:27:55;6.20;;;3.28;;
75698;SDS011;64313;51.018;13.742;2023-06-26T02:30:20;6.32;;;3.47;;
75698;SDS011;64313;51.018;13.742;2023-06-26T02:32:45;5.60;;;3.35;;
75698;SDS011;64313;51.018;13.742;2023-06-26T02:35:11;6.10;;;3.53;;
75698;SDS011;64313;51.018;13.742;2023-06-26T02:37:41;5.65;;;3.42;;
75698;SDS011;64313;51.018;13.742;2023-06-26T02:40:08;5.60;;;3.42;;
75698;SDS011;64313;51.018;13.742;2023-06-26T02:42:35;6.07;;;3.60;;
75698;SDS011;64313;51.018;13.742;2023-06-26T02:45:01;6.57;;;3.63;;
75698;SDS011;64313;51.018;13.742;2023-06-26T02:47:28;5.93;;;3.20;;
75698;SDS011;64313;51.018;13.742;2023-06-26T02:49:53;6.68;;;3.63;;
75698;SDS011;64313;51.018;13.742;2023-06-26T02:52:19;7.57;;;3.53;;
75698;SDS011;64313;51.018;13.742;2023-06-26T02:54:45;6.95;;;3.42;;
75698;SDS011;64313;51.018;13.742;2023-06-26T02:57:11;6.97;;;3.80;;
75698;SDS011;64313;51.018;13.742;2023-06-26T02:59:40;6.20;;;3.47;;
75698;SDS011;64313;51.018;13.742;2023-06-26T03:02:06;7.53;;;3.67;;
75698;SDS011;64313;51.018;13.742;2023-06-26T03:04:37;5.90;;;3.20;;
75698;SDS011;64313;51.018;13.742;2023-06-26T03:07:04;5.68;;;3.30;;
75698;SDS011;64313;51.018;13.742;2023-06-26T03:09:30;6.53;;;3.75;;
75698;SDS011;64313;51.018;13.742;2023-06-26T03:11:56;7.85;;;3.70;;
75698;SDS011;64313;51.018;13.742;2023-06-26T03:14:21;5.72;;;3.42;;
75698;SDS011;64313;51.018;13.742;2023-06-26T03:16:47;6.22;;;3.58;;
75698;SDS011;64313;51.018;13.742;2023-06-26T03:19:16;8.40;;;3.80;;
75698;SDS011;64313;51.018;13.742;2023-06-26T03:22:04;5.90;;;3.53;;
75698;SDS011;64313;51.018;13.742;2023-06-26T03:24:29;6.50;;;3.83;;
75698;SDS011;64313;51.018;13.742;2023-06-26T03:26:55;6.30;;;3.47;;
75698;SDS011;64313;51.018;13.742;2023-06-26T03:29:20;8.40;;;3.65;;
75698;SDS011;64313;51.018;13.742;2023-06-26T03:31:47;6.70;;;3.83;;
75698;SDS011;64313;51.018;13.742;2023-06-26T03:34:12;7.90;;;3.63;;
75698;SDS011;64313;51.018;13.742;2023-06-26T03:36:37;9.65;;;3.97;;
75698;SDS011;64313;51.018;13.742;2023-06-26T03:39:03;6.55;;;3.92;;
75698;SDS011;64313;51.018;13.742;2023-06-26T03:41:29;6.90;;;3.67;;
75698;SDS011;64313;51.018;13.742;2023-06-26T03:43:55;6.40;;;3.88;;
75698;SDS011;64313;51.018;13.742;2023-06-26T03:46:25;8.30;;;3.90;;
75698;SDS011;64313;51.018;13.742;2023-06-26T03:48:51;7.65;;;4.13;;
75698;SDS011;64313;51.018;13.742;2023-06-26T03:51:16;6.40;;;3.97;;
75698;SDS011;64313;51.018;13.742;2023-06-26T03:53:42;7.78;;;4.00;;
75698;SDS011;64313;51.018;13.742;2023-06-26T03:56:08;7.78;;;3.83;;
75698;SDS011;64313;51.018;13.742;2023-06-26T03:58:33;9.10;;;4.00;;
75698;SDS011;64313;51.018;13.742;2023-06-26T04:00:58;7.32;;;4.10;;
75698;SDS011;64313;51.018;13.742;2023-06-26T04:03:24;7.07;;;3.92;;
75698;SDS011;64313;51.018;13.742;2023-06-26T04:05:50;8.43;;;4.45;;
75698;SDS011;64313;51.018;13.742;2023-06-26T04:08:16;7.05;;;4.10;;
75698;SDS011;64313;51.018;13.742;2023-06-26T04:10:41;7.03;;;3.85;;
75698;SDS011;64313;51.018;13.742;2023-06-26T04:13:07;6.80;;;3.95;;
75698;SDS011;64313;51.018;13.742;2023-06-26T04:15:32;7.65;;;4.00;;
75698;SDS011;64313;51.018;13.742;2023-06-26T04:17:57;11.40;;;4.63;;
75698;SDS011;64313;51.018;13.742;2023-06-26T04:20:23;7.30;;;4.10;;
75698;SDS011;64313;51.018;13.742;2023-06-26T04:22:48;6.95;;;3.97;;
75698;SDS011;64313;51.018;13.742;2023-06-26T04:25:13;8.05;;;4.70;;
75698;SDS011;64313;51.018;13.742;2023-06-26T04:27:39;7.15;;;3.92;;
75698;SDS011;64313;51.018;13.742;2023-06-26T04:30:04;8.07;;;4.35;;
75698;SDS011;64313;51.018;13.742;2023-06-26T04:32:30;7.35;;;4.05;;
75698;SDS011;64313;51.018;13.742;2023-06-26T04:34:56;7.55;;;4.35;;
75698;SDS011;64313;51.018;13.742;2023-06-26T04:37:21;8.60;;;4.20;;
75698;SDS011;64313;51.018;13.742;2023-06-26T04:39:47;7.72;;;4.10;;
75698;SDS011;64313;51.018;13.742;2023-06-26T04:42:13;7.20;;;4.05;;
75698;SDS011;64313;51.018;13.742;2023-06-26T04:44:39;7.82;;;4.07;;
75698;SDS011;64313;51.018;13.742;2023-06-26T04:47:06;6.45;;;4.28;;
75698;SDS011;64313;51.018;13.742;2023-06-26T04:49:32;7.43;;;4.05;;
75698;SDS011;64313;51.018;13.742;2023-06-26T04:51:57;6.68;;;4.10;;
75698;SDS011;64313;51.018;13.742;2023-06-26T04:54:25;8.63;;;4.45;;
75698;SDS011;64313;51.018;13.742;2023-06-26T04:56:51;6.75;;;4.05;;
75698;SDS011;64313;51.018;13.742;2023-06-26T04:59:16;7.32;;;4.40;;
75698;SDS011;64313;51.018;13.742;2023-06-26T05:01:42;6.18;;;3.88;;
75698;SDS011;64313;51.018;13.742;2023-06-26T05:04:08;8.23;;;4.30;;
75698;SDS011;64313;51.018;13.742;2023-06-26T05:06:34;7.15;;;4.60;;
75698;SDS011;64313;51.018;13.742;2023-06-26T05:09:01;6.78;;;4.00;;
75698;SDS011;64313;51.018;13.742;2023-06-26T05:11:26;8.70;;;4.20;;
75698;SDS011;64313;51.018;13.742;2023-06-26T05:13:52;7.47;;;4.22;;
75698;SDS011;64313;51.018;13.742;2023-06-26T05:16:17;8.18;;;4.25;;
75698;SDS011;64313;51.018;13.742;2023-06-26T05:18:42;6.55;;;4.00;;
75698;SDS011;64313;51.018;13.742;2023-06-26T05:21:08;8.32;;;4.28;;
75698;SDS011;64313;51.018;13.742;2023-06-26T05:23:33;7.82;;;4.43;;
75698;SDS011;64313;51.018;13.742;2023-06-26T05:26:00;8.55;;;4.32;;
75698;SDS011;64313;51.018;13.742;2023-06-26T05:28:27;6.50;;;3.80;;
75698;SDS011;64313;51.018;13.742;2023-06-26T05:30:53;8.07;;;4.25;;
75698;SDS011;64313;51.018;13.742;2023-06-26T05:33:23;7.07;;;4.15;;
75698;SDS011;64313;51.018;13.742;2023-06-26T05:35:50;7.13;;;4.38;;
75698;SDS011;64313;51.018;13.742;2023-06-26T05:38:16;8.10;;;4.07;;
75698;SDS011;64313;51.018;13.742;2023-06-26T05:40:42;8.95;;;4.80;;
75698;SDS011;64313;51.018;13.742;2023-06-26T05:43:08;6.53;;;4.07;;
75698;SDS011;64313;51.018;13.742;2023-06-26T05:45:33;6.78;;;4.10;;
75698;SDS011;64313;51.018;13.742;2023-06-26T05:47:59;8.75;;;3.97;;
75698;SDS011;64313;51.018;13.742;2023-06-26T05:50:29;7.43;;;3.72;;
75698;SDS011;64313;51.018;13.742;2023-06-26T05:52:54;7.10;;;4.30;;
75698;SDS011;64313;51.018;13.742;2023-06-26T05:55:20;7.28;;;4.40;;
75698;SDS011;64313;51.018;13.742;2023-06-26T05:57:46;8.40;;;4.43;;
75698;SDS011;64313;51.018;13.742;2023-06-26T06:00:12;6.80;;;4.13;;
75698;SDS011;64313;51.018;13.742;2023-06-26T06:02:41;6.85;;;4.53;;
75698;SDS011;64313;51.018;13.742;2023-06-26T06:05:07;7.43;;;4.43;;
75698;SDS011;64313;51.018;13.742;2023-06-26T06:07:33;8.52;;;4.07;;
75698;SDS011;64313;51.018;13.742;2023-06-26T06:09:59;7.88;;;4.13;;
75698;SDS011;64313;51.018;13.742;2023-06-26T06:12:25;9.40;;;4.07;;
75698;SDS011;64313;51.018;13.742;2023-06-26T06:14:53;6.65;;;4.10;;
75698;SDS011;64313;51.018;13.742;2023-06-26T06:17:21;8.35;;;4.10;;
75698;SDS011;64313;51.018;13.742;2023-06-26T06:19:53;7.00;;;4.20;;
75698;SDS011;64313;51.018;13.742;2023-06-26T06:22:21;8.13;;;4.53;;
75698;SDS011;64313;51.018;13.742;2023-06-26T06:24:56;8.32;;;4.15;;
75698;SDS011;64313;51.018;13.742;2023-06-26T06:27:31;8.38;;;3.97;;
75698;SDS011;64313;51.018;13.742;2023-06-26T06:29:57;7.07;;;4.15;;
75698;SDS011;64313;51.018;13.742;2023-06-26T06:32:22;7.60;;;4.15;;
75698;SDS011;64313;51.018;13.742;2023-06-26T06:34:47;7.22;;;4.30;;
75698;SDS011;64313;51.018;13.742;2023-06-26T06:37:19;7.53;;;4.18;;
75698;SDS011;64313;51.018;13.742;2023-06-26T06:39:47;6.70;;;4.03;;
75698;SDS011;64313;51.018;13.742;2023-06-26T06:42:13;6.80;;;3.85;;
75698;SDS011;64313;51.018;13.742;2023-06-26T06:44:38;7.03;;;4.32;;
75698;SDS011;64313;51.018;13.742;2023-06-26T06:47:03;7.60;;;4.05;;
75698;SDS011;64313;51.018;13.742;2023-06-26T06:49:29;6.78;;;4.00;;
75698;SDS011;64313;51.018;13.742;2023-06-26T06:51:54;7.50;;;4.03;;
75698;SDS011;64313;51.018;13.742;2023-06-26T06:54:20;6.97;;;3.90;;
75698;SDS011;64313;51.018;13.742;2023-06-26T06:56:45;8.23;;;4.00;;
75698;SDS011;64313;51.018;13.742;2023-06-26T06:59:10;6.97;;;4.43;;
75698;SDS011;64313;51.018;13.742;2023-06-26T07:01:36;8.85;;;4.28;;
75698;SDS011;64313;51.018;13.742;2023-06-26T07:04:01;7.70;;;4.20;;
75698;SDS011;64313;51.018;13.742;2023-06-26T07:06:28;6.97;;;4.20;;
75698;SDS011;64313;51.018;13.742;2023-06-26T07:08:54;6.88;;;4.05;;
75698;SDS011;64313;51.018;13.742;2023-06-26T07:11:19;7.13;;;4.38;;
75698;SDS011;64313;51.018;13.742;2023-06-26T07:13:48;6.10;;;3.92;;
75698;SDS011;64313;51.018;13.742;2023-06-26T07:16:13;7.47;;;4.43;;
75698;SDS011;64313;51.018;13.742;2023-06-26T07:18:40;8.07;;;3.95;;
75698;SDS011;64313;51.018;13.742;2023-06-26T07:21:05;6.65;;;3.88;;
75698;SDS011;64313;51.018;13.742;2023-06-26T07:23:30;6.60;;;4.28;;
75698;SDS011;64313;51.018;13.742;2023-06-26T07:26:05;6.88;;;4.03;;
75698;SDS011;64313;51.018;13.742;2023-06-26T07:28:30;7.35;;;3.95;;
75698;SDS011;64313;51.018;13.742;2023-06-26T07:30:56;6.28;;;3.80;;
75698;SDS011;64313;51.018;13.742;2023-06-26T07:33:21;6.43;;;3.75;;
75698;SDS011;64313;51.018;13.742;2023-06-26T07:35:46;5.70;;;3.80;;
75698;SDS011;64313;51.018;13.742;2023-06-26T07:38:12;6.53;;;3.92;;
75698;SDS011;64313;51.018;13.742;2023-06-26T07:40:37;6.25;;;3.95;;
75698;SDS011;64313;51.018;13.742;2023-06-26T07:43:02;8.05;;;3.80;;
75698;SDS011;64313;51.018;13.742;2023-06-26T07:45:28;7.72;;;4.38;;
75698;SDS011;64313;51.018;13.742;2023-06-26T07:47:53;6.63;;;3.83;;
75698;SDS011;64313;51.018;13.742;2023-06-26T07:50:19;6.38;;;4.10;;
75698;SDS011;64313;51.018;13.742;2023-06-26T07:52:48;8.20;;;4.05;;
75698;SDS011;64313;51.018;13.742;2023-06-26T07:55:13;6.65;;;4.22;;
75698;SDS011;64313;51.018;13.742;2023-06-26T07:57:39;6.60;;;4.13;;
75698;SDS011;64313;51.018;13.742;2023-06-26T08:00:04;6.88;;;4.10;;
75698;SDS011;64313;51.018;13.742;2023-06-26T08:02:39;5.90;;;4.13;;
75698;SDS011;64313;51.018;13.742;2023-06-26T08:05:07;6.57;;;4.20;;
75698;SDS011;64313;51.018;13.742;2023-06-26T08:07:32;7.32;;;4.28;;
75698;SDS011;64313;51.018;13.742;2023-06-26T08:10:17;9.77;;;4.35;;
75698;SDS011;64313;51.018;13.742;2023-06-26T08:12:43;7.00;;;4.10;;
75698;SDS011;64313;51.018;13.742;2023-06-26T08:15:31;6.80;;;4.03;;
75698;SDS011;64313;51.018;13.742;2023-06-26T08:18:01;6.95;;;4.40;;
75698;SDS011;64313;51.018;13.742;2023-06-26T08:23:43;6.88;;;3.90;;
75698;SDS011;64313;51.018;13.742;2023-06-26T08:26:09;6.50;;;4.03;;
75698;SDS011;64313;51.018;13.742;2023-06-26T08:28:34;6.57;;;3.88;;
75698;SDS011;64313;51.018;13.742;2023-06-26T08:31:00;7.05;;;4.50;;
75698;SDS011;64313;51.018;13.742;2023-06-26T08:33:28;6.82;;;3.92;;
75698;SDS011;64313;51.018;13.742;2023-06-26T08:35:56;6.85;;;3.50;;
75698;SDS011;64313;51.018;13.742;2023-06-26T08:38:21;6.30;;;4.13;;
75698;SDS011;64313;51.018;13.742;2023-06-26T08:40:47;6.80;;;4.03;;
75698;SDS011;64313;51.018;13.742;2023-06-26T08:43:13;6.15;;;4.10;;
75698;SDS011;64313;51.018;13.742;2023-06-26T08:45:38;6.35;;;3.97;;
75698;SDS011;64313;51.018;13.742;2023-06-26T08:48:04;7.72;;;4.22;;
75698;SDS011;64313;51.018;13.742;2023-06-26T08:50:33;7.15;;;4.38;;
75698;SDS011;64313;51.018;13.742;2023-06-26T08:53:43;5.68;;;3.58;;
75698;SDS011;64313;51.018;13.742;2023-06-26T08:55:54;7.35;;;4.45;;
75698;SDS011;64313;51.018;13.742;2023-06-26T08:58:23;6.65;;;4.00;;
75698;SDS011;64313;51.018;13.742;2023-06-26T09:00:48;6.03;;;4.03;;
75698;SDS011;64313;51.018;13.742;2023-06-26T09:03:17;8.18;;;4.13;;
75698;SDS011;64313;51.018;13.742;2023-06-26T09:05:55;7.22;;;4.20;;
75698;SDS011;64313;51.018;13.742;2023-06-26T09:08:28;7.32;;;4.18;;
75698;SDS011;64313;51.018;13.742;2023-06-26T09:10:54;7.43;;;4.53;;
75698;SDS011;64313;51.018;13.742;2023-06-26T09:13:19;8.77;;;3.97;;
75698;SDS011;64313;51.018;13.742;2023-06-26T09:15:48;6.90;;;4.30;;
75698;SDS011;64313;51.018;13.742;2023-06-26T09:18:14;6.05;;;3.70;;
75698;SDS011;64313;51.018;13.742;2023-06-26T09:20:46;6.55;;;3.92;;
75698;SDS011;64313;51.018;13.742;2023-06-26T09:26:03;6.22;;;3.90;;
75698;SDS011;64313;51.018;13.742;2023-06-26T09:28:34;6.10;;;3.85;;
75698;SDS011;64313;51.018;13.742;2023-06-26T09:31:07;7.53;;;4.50;;
75698;SDS011;64313;51.018;13.742;2023-06-26T09:33:33;6.90;;;4.07;;
75698;SDS011;64313;51.018;13.742;2023-06-26T09:36:01;7.40;;;4.10;;
75698;SDS011;64313;51.018;13.742;2023-06-26T09:41:54;5.95;;;4.22;;
75698;SDS011;64313;51.018;13.742;2023-06-26T09:47:31;8.88;;;3.95;;
75698;SDS011;64313;51.018;13.742;2023-06-26T09:49:57;6.07;;;4.13;;
75698;SDS011;64313;51.018;13.742;2023-06-26T09:52:31;7.25;;;4.30;;
75698;SDS011;64313;51.018;13.742;2023-06-26T09:55:09;6.72;;;4.07;;
75698;SDS011;64313;51.018;13.742;2023-06-26T09:57:35;6.97;;;4.10;;
75698;SDS011;64313;51.018;13.742;2023-06-26T10:00:02;6.07;;;3.95;;
75698;SDS011;64313;51.018;13.742;2023-06-26T10:02:37;6.45;;;3.95;;
75698;SDS011;64313;51.018;13.742;2023-06-26T10:05:03;6.05;;;3.92;;
75698;SDS011;64313;51.018;13.742;2023-06-26T10:07:28;7.93;;;3.67;;
75698;SDS011;64313;51.018;13.742;2023-06-26T10:10:00;6.03;;;3.70;;
75698;SDS011;64313;51.018;13.742;2023-06-26T10:12:28;6.68;;;3.70;;
75698;SDS011;64313;51.018;13.742;2023-06-26T10:14:56;6.53;;;3.50;;
75698;SDS011;64313;51.018;13.742;2023-06-26T10:17:35;5.43;;;3.50;;
75698;SDS011;64313;51.018;13.742;2023-06-26T10:20:11;7.28;;;3.80;;
75698;SDS011;64313;51.018;13.742;2023-06-26T10:22:45;6.57;;;3.53;;
75698;SDS011;64313;51.018;13.742;2023-06-26T10:25:12;5.50;;;3.63;;
75698;SDS011;64313;51.018;13.742;2023-06-26T10:27:43;5.72;;;3.50;;
75698;SDS011;64313;51.018;13.742;2023-06-26T10:30:16;6.13;;;3.60;;
75698;SDS011;64313;51.018;13.742;2023-06-26T10:32:45;6.72;;;3.83;;
75698;SDS011;64313;51.018;13.742;2023-06-26T10:35:12;5.72;;;3.70;;
75698;SDS011;64313;51.018;13.742;2023-06-26T10:37:41;6.40;;;3.88;;
75698;SDS011;64313;51.018;13.742;2023-06-26T10:40:11;6.57;;;3.90;;
75698;SDS011;64313;51.018;13.742;2023-06-26T10:42:38;5.30;;;3.40;;
75698;SDS011;64313;51.018;13.742;2023-06-26T10:47:40;6.15;;;3.85;;
75698;SDS011;64313;51.018;13.742;2023-06-26T10:50:16;5.93;;;3.47;;
75698;SDS011;64313;51.018;13.742;2023-06-26T10:52:43;7.07;;;3.60;;
75698;SDS011;64313;51.018;13.742;2023-06-26T10:55:08;6.45;;;3.90;;
75698;SDS011;64313;51.018;13.742;2023-06-26T10:57:35;6.53;;;3.72;;
75698;SDS011;64313;51.018;13.742;2023-06-26T11:00:08;8.38;;;3.80;;
75698;SDS011;64313;51.018;13.742;2023-06-26T11:03:08;6.47;;;3.63;;
75698;SDS011;64313;51.018;13.742;2023-06-26T11:05:47;6.63;;;3.78;;
75698;SDS011;64313;51.018;13.742;2023-06-26T11:11:12;6.30;;;3.75;;
75698;SDS011;64313;51.018;13.742;2023-06-26T11:13:37;5.95;;;3.38;;
75698;SDS011;64313;51.018;13.742;2023-06-26T11:16:04;5.57;;;3.60;;
75698;SDS011;64313;51.018;13.742;2023-06-26T11:18:31;5.85;;;3.72;;
75698;SDS011;64313;51.018;13.742;2023-06-26T11:21:04;5.82;;;3.60;;
75698;SDS011;64313;51.018;13.742;2023-06-26T11:23:34;7.28;;;3.60;;
75698;SDS011;64313;51.018;13.742;2023-06-26T11:26:14;6.65;;;3.50;;
75698;SDS011;64313;51.018;13.742;2023-06-26T11:28:50;6.22;;;3.55;;
75698;SDS011;64313;51.018;13.742;2023-06-26T11:31:26;5.85;;;3.78;;
75698;SDS011;64313;51.018;13.742;2023-06-26T11:34:04;6.18;;;3.58;;
75698;SDS011;64313;51.018;13.742;2023-06-26T11:36:32;7.03;;;3.55;;
75698;SDS011;64313;51.018;13.742;2023-06-26T11:39:01;6.18;;;3.90;;
75698;SDS011;64313;51.018;13.742;2023-06-26T11:41:33;6.07;;;3.78;;
75698;SDS011;64313;51.018;13.742;2023-06-26T11:44:04;6.70;;;3.58;;
75698;SDS011;64313;51.018;13.742;2023-06-26T11:46:36;5.63;;;3.75;;
75698;SDS011;64313;51.018;13.742;2023-06-26T11:49:06;6.20;;;3.63;;
75698;SDS011;64313;51.018;13.742;2023-06-26T11:51:32;5.85;;;3.72;;
75698;SDS011;64313;51.018;13.742;2023-06-26T11:54:00;5.70;;;3.60;;
75698;SDS011;64313;51.018;13.742;2023-06-26T11:56:30;5.32;;;3.40;;
75698;SDS011;64313;51.018;13.742;2023-06-26T11:59:03;5.57;;;3.53;;
75698;SDS011;64313;51.018;13.742;2023-06-26T12:01:31;7.07;;;3.40;;
75698;SDS011;64313;51.018;13.742;2023-06-26T12:03:59;5.78;;;3.70;;
75698;SDS011;64313;51.018;13.742;2023-06-26T12:06:28;6.70;;;3.40;;
75698;SDS011;64313;51.018;13.742;2023-06-26T12:11:25;5.88;;;3.70;;
75698;SDS011;64313;51.018;13.742;2023-06-26T12:13:52;6.82;;;3.70;;
75698;SDS011;64313;51.018;13.742;2023-06-26T12:16:18;6.95;;;3.63;;
75698;SDS011;64313;51.018;13.742;2023-06-26T12:18:44;6.38;;;4.10;;
75698;SDS011;64313;51.018;13.742;2023-06-26T12:21:27;5.40;;;3.75;;
75698;SDS011;64313;51.018;13.742;2023-06-26T12:24:16;6.07;;;4.03;;
75698;SDS011;64313;51.018;13.742;2023-06-26T12:26:43;6.30;;;3.60;;
75698;SDS011;64313;51.018;13.742;2023-06-26T12:29:10;5.68;;;3.53;;
75698;SDS011;64313;51.018;13.742;2023-06-26T12:31:39;5.80;;;3.75;;
75698;SDS011;64313;51.018;13.742;2023-06-26T12:34:14;6.57;;;3.80;;
75698;SDS011;64313;51.018;13.742;2023-06-26T12:36:46;5.25;;;3.38;;
75698;SDS011;64313;51.018;13.742;2023-06-26T12:44:28;5.88;;;3.60;;
75698;SDS011;64313;51.018;13.742;2023-06-26T12:46:58;6.20;;;3.80;;
75698;SDS011;64313;51.018;13.742;2023-06-26T12:49:34;6.03;;;3.80;;
75698;SDS011;64313;51.018;13.742;2023-06-26T12:52:05;7.25;;;4.13;;
75698;SDS011;64313;51.018;13.742;2023-06-26T12:54:32;5.72;;;3.70;;
75698;SDS011;64313;51.018;13.742;2023-06-26T12:56:59;6.07;;;3.60;;
75698;SDS011;64313;51.018;13.742;2023-06-26T12:59:24;5.70;;;3.58;;
75698;SDS011;64313;51.018;13.742;2023-06-26T13:01:50;5.68;;;3.90;;
75698;SDS011;64313;51.018;13.742;2023-06-26T13:04:15;6.13;;;3.60;;
75698;SDS011;64313;51.018;13.742;2023-06-26T13:06:41;5.70;;;3.60;;
75698;SDS011;64313;51.018;13.742;2023-06-26T13:09:06;5.85;;;3.80;;
75698;SDS011;64313;51.018;13.742;2023-06-26T13:11:32;6.10;;;3.80;;
75698;SDS011;64313;51.018;13.742;2023-06-26T13:13:58;7.45;;;3.83;;
75698;SDS011;64313;51.018;13.742;2023-06-26T13:16:24;5.65;;;3.80;;
75698;SDS011;64313;51.018;13.742;2023-06-26T13:18:50;5.57;;;3.70;;
75698;SDS011;64313;51.018;13.742;2023-06-26T13:21:15;6.80;;;3.83;;
75698;SDS011;64313;51.018;13.742;2023-06-26T13:23:42;5.75;;;3.70;;
75698;SDS011;64313;51.018;13.742;2023-06-26T13:26:07;5.35;;;3.53;;
75698;SDS011;64313;51.018;13.742;2023-06-26T13:28:33;6.40;;;3.58;;
75698;SDS011;64313;51.018;13.742;2023-06-26T13:30:58;6.03;;;3.63;;
75698;SDS011;64313;51.018;13.742;2023-06-26T13:33:23;5.80;;;3.63;;
75698;SDS011;64313;51.018;13.742;2023-06-26T13:35:51;5.75;;;3.65;;
75698;SDS011;64313;51.018;13.742;2023-06-26T13:38:19;5.78;;;3.80;;
75698;SDS011;64313;51.018;13.742;2023-06-26T13:40:45;6.55;;;4.15;;
75698;SDS011;64313;51.018;13.742;2023-06-26T13:43:10;6.78;;;3.65;;
75698;SDS011;64313;51.018;13.742;2023-06-26T13:45:36;6.28;;;3.40;;
75698;SDS011;64313;51.018;13.742;2023-06-26T13:48:01;5.93;;;3.85;;
75698;SDS011;64313;51.018;13.742;2023-06-26T13:50:28;7.13;;;3.67;;
75698;SDS011;64313;51.018;13.742;2023-06-26T13:52:54;5.65;;;3.70;;
75698;SDS011;64313;51.018;13.742;2023-06-26T13:55:20;6.63;;;3.88;;
75698;SDS011;64313;51.018;13.742;2023-06-26T13:57:47;6.85;;;4.20;;
75698;SDS011;64313;51.018;13.742;2023-06-26T14:00:15;6.65;;;3.72;;
75698;SDS011;64313;51.018;13.742;2023-06-26T14:02:45;6.25;;;3.95;;
75698;SDS011;64313;51.018;13.742;2023-06-26T14:05:10;7.00;;;4.15;;
75698;SDS011;64313;51.018;13.742;2023-06-26T14:07:37;6.57;;;4.10;;
75698;SDS011;64313;51.018;13.742;2023-06-26T14:10:03;6.22;;;4.13;;
75698;SDS011;64313;51.018;13.742;2023-06-26T14:12:30;5.72;;;3.65;;
75698;SDS011;64313;51.018;13.742;2023-06-26T14:14:55;5.60;;;3.53;;
75698;SDS011;64313;51.018;13.742;2023-06-26T14:17:21;5.90;;;4.00;;
75698;SDS011;64313;51.018;13.742;2023-06-26T14:19:49;5.85;;;3.75;;
75698;SDS011;64313;51.018;13.742;2023-06-26T14:22:14;6.72;;;3.60;;
75698;SDS011;64313;51.018;13.742;2023-06-26T14:24:40;7.13;;;3.75;;
75698;SDS011;64313;51.018;13.742;2023-06-26T14:27:05;7.07;;;3.97;;
75698;SDS011;64313;51.018;13.742;2023-06-26T14:29:30;6.30;;;4.00;;
75698;SDS011;64313;51.018;13.742;2023-06-26T14:31:56;6.05;;;3.83;;
75698;SDS011;64313;51.018;13.742;2023-06-26T14:34:21;6.63;;;4.60;;
75698;SDS011;64313;51.018;13.742;2023-06-26T14:36:46;7.05;;;4.30;;
75698;SDS011;64313;51.018;13.742;2023-06-26T14:39:12;6.85;;;4.00;;
75698;SDS011;64313;51.018;13.742;2023-06-26T14:41:37;6.63;;;4.00;;
75698;SDS011;64313;51.018;13.742;2023-06-26T14:44:03;7.68;;;3.72;;
75698;SDS011;64313;51.018;13.742;2023-06-26T14:46:29;7.10;;;4.18;;
75698;SDS011;64313;51.018;13.742;2023-06-26T14:48:55;6.32;;;4.07;;
75698;SDS011;64313;51.018;13.742;2023-06-26T14:51:20;6.57;;;4.30;;
75698;SDS011;64313;51.018;13.742;2023-06-26T14:53:46;6.95;;;4.05;;
75698;SDS011;64313;51.018;13.742;2023-06-26T14:56:12;7.10;;;3.95;;
75698;SDS011;64313;51.018;13.742;2023-06-26T14:58:38;7.07;;;4.72;;
75698;SDS011;64313;51.018;13.742;2023-06-26T15:01:03;6.38;;;4.30;;
75698;SDS011;64313;51.018;13.742;2023-06-26T15:03:28;7.30;;;4.30;;
75698;SDS011;64313;51.018;13.742;2023-06-26T15:05:54;6.25;;;4.25;;